Time;durP1;ratioP1;P1;durP2;ratioP2;P2;SDS_P1;SDS_P2;PMS_P1;PMS_P2;Temp;Humidity;BMP_temperature;BMP_pressure;BME280_temperature;BME280_humidity;BME280_pressure;Samples;Min_cycle;Max_cycle;Signal;HPM_P1;HPM_P2
2022/12/25 00:01:13;;;;;;;;;;;18.60;66.40;;;;;;4457668;32;19978;-77
2022/12/25 00:03:39;;;;;;;;;;;18.60;66.30;;;;;;4456333;32;19981;-77
2022/12/25 00:06:05;;;;;;;;;;;18.50;66.30;;;;;;4458238;32;19970;-77
2022/12/25 00:08:31;;;;;;;;;;;18.50;66.30;;;;;;4457519;32;20513;-77
2022/12/25 00:11:01;;;;;;;;;;;18.50;66.20;;;;;;4459004;32;19974;-77
2022/12/25 00:13:27;;;;;;;;;;;18.50;66.20;;;;;;4458900;32;20017;-77
2022/12/25 00:15:54;;;;;;;;;;;18.50;66.20;;;;;;4459602;32;19978;-77
2022/12/25 00:18:19;;;;;;;;;;;18.50;66.20;;;;;;4457942;32;19982;-77
2022/12/25 00:20:54;;;;;;;;;;;18.50;66.20;;;;;;4457163;32;20289;-77
2022/12/25 00:23:20;;;;;;;;;;;18.50;66.10;;;;;;4462299;32;20021;-77
2022/12/25 00:25:46;;;;;;;;;;;18.40;66.20;;;;;;4462439;32;20388;-77
2022/12/25 00:28:11;;;;;;;;;;;18.40;66.10;;;;;;4459895;32;19990;-77
2022/12/25 00:30:39;;;;;;;;;;;18.40;66.10;;;;;;4461400;32;20202;-77
2022/12/25 00:33:08;;;;;;;;;;;18.40;66.10;;;;;;4460577;32;20174;-77
2022/12/25 00:35:33;;;;;;;;;;;18.40;66.00;;;;;;4462093;32;19978;-77
2022/12/25 00:37:59;;;;;;;;;;;18.40;66.00;;;;;;4461698;32;20125;-77
2022/12/25 00:40:25;;;;;;;;;;;18.40;66.10;;;;;;4462631;32;19984;-77
2022/12/25 00:42:52;;;;;;;;;;;18.30;66.00;;;;;;4447715;32;20068;-77
2022/12/25 00:45:18;;;;;;;;;;;18.30;66.00;;;;;;4460297;32;20375;-77
2022/12/25 00:47:44;;;;;;;;;;;18.30;66.00;;;;;;4461268;32;19966;-77
2022/12/25 00:50:10;;;;;;;;;;;18.30;66.00;;;;;;4461335;32;20345;-77
2022/12/25 00:52:36;;;;;;;;;;;18.30;65.90;;;;;;4461221;32;20324;-77
2022/12/25 00:55:02;;;;;;;;;;;18.30;65.90;;;;;;4461475;32;20089;-77
2022/12/25 00:57:27;;;;;;;;;;;18.30;66.00;;;;;;4459688;32;20013;-77
2022/12/25 00:59:53;;;;;;;;;;;18.20;65.90;;;;;;4460508;32;19978;-77
2022/12/25 01:02:25;;;;;;;;;;;18.20;65.90;;;;;;4459499;32;19978;-77
2022/12/25 01:04:52;;;;;;;;;;;18.30;66.00;;;;;;4460297;32;20053;-77
2022/12/25 01:07:18;;;;;;;;;;;18.20;66.00;;;;;;4459911;32;20324;-77
2022/12/25 01:12:30;;;;;;;;;;;18.20;65.90;;;;;;4461598;32;19974;-77
2022/12/25 01:14:56;;;;;;;;;;;18.20;65.90;;;;;;4447530;32;19970;-77
2022/12/25 01:17:22;;;;;;;;;;;18.20;65.90;;;;;;4459702;32;20001;-77
2022/12/25 01:19:48;;;;;;;;;;;18.20;65.90;;;;;;4459948;32;20067;-77
2022/12/25 01:22:15;;;;;;;;;;;18.20;65.90;;;;;;4461176;32;20108;-77
2022/12/25 01:24:45;;;;;;;;;;;18.20;66.80;;;;;;4461399;32;20100;-77
2022/12/25 01:27:11;;;;;;;;;;;18.10;65.80;;;;;;4459665;32;20144;-77
2022/12/25 01:29:47;;;;;;;;;;;18.10;65.80;;;;;;4447487;32;19971;-77
2022/12/25 01:32:13;;;;;;;;;;;18.10;65.80;;;;;;4447489;32;20029;-77
2022/12/25 01:34:41;;;;;;;;;;;18.10;65.80;;;;;;4443612;32;20821;-77
2022/12/25 01:37:07;;;;;;;;;;;18.10;65.80;;;;;;4459731;32;20045;-77
2022/12/25 01:39:33;;;;;;;;;;;18.10;65.80;;;;;;4445875;32;19982;-77
2022/12/25 01:42:00;;;;;;;;;;;18.10;65.80;;;;;;4446273;32;20036;-77
2022/12/25 01:44:36;;;;;;;;;;;18.00;65.70;;;;;;4458039;32;20005;-77
2022/12/25 01:47:05;;;;;;;;;;;18.10;65.80;;;;;;4460053;32;20053;-77
2022/12/25 01:49:36;;;;;;;;;;;18.00;65.70;;;;;;4461433;32;20101;-78
2022/12/25 01:52:09;;;;;;;;;;;18.00;65.70;;;;;;4459242;32;20025;-77
2022/12/25 01:54:36;;;;;;;;;;;18.00;65.70;;;;;;4460073;32;19990;-77
2022/12/25 01:57:05;;;;;;;;;;;18.00;65.70;;;;;;4460749;32;20041;-77
2022/12/25 01:59:31;;;;;;;;;;;18.00;65.70;;;;;;4458878;32;19998;-77
2022/12/25 02:01:58;;;;;;;;;;;18.00;65.70;;;;;;4459343;32;19981;-77
2022/12/25 02:04:39;;;;;;;;;;;18.00;65.70;;;;;;4452609;32;20060;-77
2022/12/25 02:07:06;;;;;;;;;;;18.00;65.70;;;;;;4447724;32;20331;-77
2022/12/25 02:09:32;;;;;;;;;;;18.00;65.70;;;;;;4447944;32;20582;-77
2022/12/25 02:12:06;;;;;;;;;;;18.00;65.70;;;;;;4448430;32;19979;-77
2022/12/25 02:14:33;;;;;;;;;;;18.00;65.60;;;;;;4447716;32;20029;-77
2022/12/25 02:17:16;;;;;;;;;;;18.00;65.70;;;;;;4450472;32;19989;-77
2022/12/25 02:19:42;;;;;;;;;;;17.90;65.60;;;;;;4462499;32;20025;-77
2022/12/25 02:22:26;;;;;;;;;;;17.90;65.60;;;;;;4462376;32;20141;-77
2022/12/25 02:25:10;;;;;;;;;;;18.00;65.60;;;;;;4462201;32;20218;-77
2022/12/25 02:27:36;;;;;;;;;;;17.90;65.50;;;;;;4462325;32;19974;-77
2022/12/25 02:30:04;;;;;;;;;;;17.90;65.50;;;;;;4461978;32;20028;-77
2022/12/25 02:32:32;;;;;;;;;;;17.90;65.50;;;;;;4447919;32;19981;-77
2022/12/25 02:35:01;;;;;;;;;;;17.90;65.50;;;;;;4462002;32;19970;-77
2022/12/25 02:37:36;;;;;;;;;;;17.90;65.40;;;;;;4461782;32;20431;-77
2022/12/25 02:40:21;;;;;;;;;;;17.90;65.40;;;;;;4461892;32;20009;-77
2022/12/25 03:08:25;;;;;;;;;;;17.80;65.20;;;;;;4444939;32;19998;-77
2022/12/25 03:13:42;;;;;;;;;;;17.80;65.30;;;;;;4458329;32;19982;-77
2022/12/25 03:18:54;;;;;;;;;;;17.80;65.20;;;;;;4457972;32;20487;-77
2022/12/25 03:26:55;;;;;;;;;;;17.80;65.20;;;;;;4459233;32;20402;-77
2022/12/25 03:32:19;;;;;;;;;;;17.80;65.20;;;;;;4456171;32;19978;-77
2022/12/25 03:38:22;;;;;;;;;;;17.70;65.20;;;;;;4458702;32;20595;-77
2022/12/25 04:36:37;;;;;;;;;;;17.50;65.10;;;;;;4457334;32;19982;-77
2022/12/25 04:39:03;;;;;;;;;;;17.50;65.10;;;;;;4458830;32;20319;-77
2022/12/25 04:41:28;;;;;;;;;;;17.50;65.10;;;;;;4459557;32;19974;-77
2022/12/25 04:43:54;;;;;;;;;;;17.50;65.10;;;;;;4457313;32;20381;-77
2022/12/25 04:46:20;;;;;;;;;;;17.50;65.10;;;;;;4457741;32;19985;-77
2022/12/25 04:48:47;;;;;;;;;;;17.50;65.10;;;;;;4451117;32;20025;-77
2022/12/25 04:51:14;;;;;;;;;;;17.50;65.10;;;;;;4450269;32;20408;-77
2022/12/25 04:53:39;;;;;;;;;;;17.50;65.10;;;;;;4460423;32;19981;-77
2022/12/25 04:56:05;;;;;;;;;;;17.50;65.10;;;;;;4460295;32;19962;-77
2022/12/25 04:58:31;;;;;;;;;;;17.50;65.10;;;;;;4443793;32;19963;-77
2022/12/25 05:00:58;;;;;;;;;;;17.50;65.10;;;;;;4443556;32;20427;-77
2022/12/25 05:03:24;;;;;;;;;;;17.50;65.10;;;;;;4441355;32;19993;-77
2022/12/25 05:05:49;;;;;;;;;;;17.50;65.10;;;;;;4440812;32;19975;-77
2022/12/25 05:08:15;;;;;;;;;;;17.50;65.10;;;;;;4440729;32;19967;-77
2022/12/25 05:10:41;;;;;;;;;;;17.50;65.10;;;;;;4444111;32;20117;-77
2022/12/25 05:13:07;;;;;;;;;;;17.50;65.10;;;;;;4444462;32;19974;-77
2022/12/25 05:15:32;;;;;;;;;;;17.40;65.10;;;;;;4446841;32;20003;-77
2022/12/25 05:17:59;;;;;;;;;;;17.40;65.00;;;;;;4446844;32;19989;-77
2022/12/25 05:20:28;;;;;;;;;;;17.40;65.00;;;;;;4446596;32;19978;-77
2022/12/25 05:22:54;;;;;;;;;;;17.40;65.00;;;;;;4438086;32;20104;-77
2022/12/25 05:25:20;;;;;;;;;;;17.40;65.00;;;;;;4444275;32;19966;-77
2022/12/25 05:27:45;;;;;;;;;;;17.40;65.00;;;;;;4445690;32;19967;-77
2022/12/25 05:30:11;;;;;;;;;;;17.40;65.00;;;;;;4445482;32;20057;-77
2022/12/25 05:32:37;;;;;;;;;;;17.40;65.10;;;;;;4446922;32;20431;-77
2022/12/25 05:35:03;;;;;;;;;;;17.40;65.10;;;;;;4446269;32;19985;-77
2022/12/25 05:37:29;;;;;;;;;;;17.40;65.00;;;;;;4445948;32;19983;-77
2022/12/25 05:39:54;;;;;;;;;;;17.40;65.00;;;;;;4446400;32;19979;-77
2022/12/25 05:42:21;;;;;;;;;;;17.40;65.10;;;;;;4445447;32;19977;-77
2022/12/25 05:44:47;;;;;;;;;;;17.30;65.00;;;;;;4446577;32;19999;-77
2022/12/25 05:47:13;;;;;;;;;;;17.40;65.10;;;;;;4445578;32;20495;-77
2022/12/25 05:49:39;;;;;;;;;;;17.30;65.00;;;;;;4446589;32;20586;-77
2022/12/25 05:52:05;;;;;;;;;;;17.30;65.10;;;;;;4446313;32;20092;-77
2022/12/25 05:54:31;;;;;;;;;;;17.30;65.00;;;;;;4446816;32;20001;-77
2022/12/25 05:56:56;;;;;;;;;;;17.30;65.00;;;;;;4446052;32;19982;-77
2022/12/25 05:59:22;;;;;;;;;;;17.30;65.00;;;;;;4457713;32;20017;-76
2022/12/25 06:01:48;;;;;;;;;;;17.30;65.10;;;;;;4462648;32;19962;-77
2022/12/25 06:04:14;;;;;;;;;;;17.30;65.00;;;;;;4462798;32;20115;-77
2022/12/25 06:06:40;;;;;;;;;;;17.30;65.00;;;;;;4462112;32;19974;-77
2022/12/25 06:09:06;;;;;;;;;;;17.30;65.10;;;;;;4462417;32;20100;-77
2022/12/25 06:11:31;;;;;;;;;;;17.30;65.10;;;;;;4462157;32;20008;-77
2022/12/25 06:13:57;;;;;;;;;;;17.30;65.00;;;;;;4462610;32;19970;-77
2022/12/25 06:16:23;;;;;;;;;;;17.40;65.00;;;;;;4447977;32;20126;-77
2022/12/25 06:18:51;;;;;;;;;;;17.40;64.90;;;;;;4462286;32;19958;-77
2022/12/25 06:21:16;;;;;;;;;;;17.40;64.90;;;;;;4461892;32;19978;-77
2022/12/25 06:23:43;;;;;;;;;;;17.40;64.80;;;;;;4461964;32;20478;-77
2022/12/25 06:26:10;;;;;;;;;;;17.40;64.70;;;;;;4462217;32;19988;-77
2022/12/25 06:28:36;;;;;;;;;;;17.40;64.70;;;;;;4461615;32;20384;-77
2022/12/25 06:31:08;;;;;;;;;;;17.40;64.50;;;;;;4459446;32;20009;-77
2022/12/25 06:33:33;;;;;;;;;;;17.50;64.50;;;;;;4449737;32;19975;-77
2022/12/25 06:36:03;;;;;;;;;;;17.50;64.50;;;;;;4457173;32;19985;-77
2022/12/25 06:38:28;;;;;;;;;;;17.50;64.50;;;;;;4457508;32;20105;-77
2022/12/25 06:40:54;;;;;;;;;;;17.50;64.50;;;;;;4453765;32;19974;-77
2022/12/25 06:43:20;;;;;;;;;;;17.50;64.40;;;;;;4457378;32;19966;-77
2022/12/25 06:45:46;;;;;;;;;;;17.50;64.40;;;;;;4444876;32;19978;-77
2022/12/25 06:48:12;;;;;;;;;;;17.50;64.40;;;;;;4446586;32;20171;-77
2022/12/25 06:50:41;;;;;;;;;;;17.50;64.40;;;;;;4460202;32;19988;-77
2022/12/25 06:53:07;;;;;;;;;;;17.60;64.40;;;;;;4458248;32;20164;-77
2022/12/25 06:55:33;;;;;;;;;;;17.60;64.40;;;;;;4446574;32;20022;-77
2022/12/25 06:57:58;;;;;;;;;;;17.50;64.30;;;;;;4460458;32;20419;-77
2022/12/25 07:00:25;;;;;;;;;;;17.60;64.30;;;;;;4444915;32;20469;-77
2022/12/25 07:02:51;;;;;;;;;;;17.60;64.30;;;;;;4458295;32;19979;-77
2022/12/25 07:05:17;;;;;;;;;;;17.60;64.30;;;;;;4458956;32;19970;-77
2022/12/25 07:07:43;;;;;;;;;;;17.60;64.20;;;;;;4453385;32;20077;-77
2022/12/25 07:10:09;;;;;;;;;;;17.60;64.30;;;;;;4449566;32;19970;-77
2022/12/25 07:12:34;;;;;;;;;;;17.60;64.30;;;;;;4449851;32;19963;-77
2022/12/25 07:15:00;;;;;;;;;;;17.60;64.20;;;;;;4456630;32;19991;-77
2022/12/25 07:17:26;;;;;;;;;;;17.60;64.20;;;;;;4458494;32;20032;-77
2022/12/25 07:19:51;;;;;;;;;;;17.70;64.20;;;;;;4457757;32;19990;-76
2022/12/25 07:22:17;;;;;;;;;;;17.60;64.10;;;;;;4458728;32;19981;-77
2022/12/25 07:24:43;;;;;;;;;;;17.70;64.10;;;;;;4459313;32;20022;-77
2022/12/25 07:27:11;;;;;;;;;;;17.60;63.90;;;;;;4458955;32;20001;-77
2022/12/25 07:29:37;;;;;;;;;;;17.70;64.00;;;;;;4459439;32;19989;-77
2022/12/25 07:32:05;;;;;;;;;;;17.70;63.90;;;;;;4457443;32;19994;-77
2022/12/25 07:34:31;;;;;;;;;;;17.70;63.90;;;;;;4454402;32;19989;-77
2022/12/25 07:37:00;;;;;;;;;;;17.70;63.80;;;;;;4452992;32;19989;-77
2022/12/25 07:39:25;;;;;;;;;;;17.70;63.90;;;;;;4450198;32;19975;-77
2022/12/25 07:41:51;;;;;;;;;;;17.70;63.80;;;;;;4454659;32;20139;-76
2022/12/25 07:44:17;;;;;;;;;;;17.70;63.90;;;;;;4452442;32;19978;-77
2022/12/25 07:46:44;;;;;;;;;;;17.70;63.80;;;;;;4457914;32;19998;-77
2022/12/25 07:49:10;;;;;;;;;;;17.70;63.90;;;;;;4454785;32;20005;-77
2022/12/25 07:51:37;;;;;;;;;;;17.70;63.90;;;;;;4458045;32;19994;-76
2022/12/25 07:54:03;;;;;;;;;;;17.70;63.90;;;;;;4459694;32;20018;-77
2022/12/25 07:56:30;;;;;;;;;;;17.70;63.90;;;;;;4455724;32;20042;-77
2022/12/25 07:58:56;;;;;;;;;;;17.60;63.80;;;;;;4457713;32;20108;-77
2022/12/25 08:01:25;;;;;;;;;;;17.60;63.80;;;;;;4455999;32;20335;-77
2022/12/25 08:03:56;;;;;;;;;;;17.70;63.90;;;;;;4456099;32;20006;-77
2022/12/25 08:06:25;;;;;;;;;;;17.70;63.90;;;;;;4455753;32;20384;-77
2022/12/25 08:09:01;;;;;;;;;;;17.60;63.90;;;;;;4456269;32;20418;-77
2022/12/25 08:11:27;;;;;;;;;;;17.60;63.90;;;;;;4455647;32;19966;-77
2022/12/25 08:13:53;;;;;;;;;;;17.60;63.90;;;;;;4454947;32;20048;-76
2022/12/25 08:16:18;;;;;;;;;;;17.60;63.90;;;;;;4457181;32;20328;-76
2022/12/25 08:18:44;;;;;;;;;;;17.60;63.90;;;;;;4453405;32;19985;-77
2022/12/25 08:21:11;;;;;;;;;;;17.60;64.10;;;;;;4457204;32;20380;-77
2022/12/25 08:23:41;;;;;;;;;;;17.60;64.00;;;;;;4453420;32;20273;-77
2022/12/25 08:26:09;;;;;;;;;;;17.60;64.00;;;;;;4449990;32;20514;-77
2022/12/25 08:28:35;;;;;;;;;;;17.60;64.00;;;;;;4454720;32;20050;-77
2022/12/25 08:31:07;;;;;;;;;;;17.60;64.10;;;;;;4455480;32;20028;-77
2022/12/25 08:33:32;;;;;;;;;;;17.60;64.10;;;;;;4455326;32;20325;-77
2022/12/25 08:36:04;;;;;;;;;;;17.60;64.10;;;;;;4452337;32;19975;-79
2022/12/25 08:38:30;;;;;;;;;;;17.60;65.00;;;;;;4446064;32;20108;-79
2022/12/25 08:40:55;;;;;;;;;;;17.60;65.10;;;;;;4450044;32;19981;-78
2022/12/25 08:43:27;;;;;;;;;;;17.60;65.20;;;;;;4455899;32;19974;-79
2022/12/25 08:45:53;;;;;;;;;;;17.60;65.70;;;;;;4453310;32;20106;-80
2022/12/25 08:48:19;;;;;;;;;;;17.70;65.70;;;;;;4455644;32;20439;-78
2022/12/25 08:50:45;;;;;;;;;;;17.70;65.10;;;;;;4454692;32;19983;-77
2022/12/25 08:53:12;;;;;;;;;;;17.80;64.70;;;;;;4463081;32;20331;-77
2022/12/25 08:55:40;;;;;;;;;;;17.90;64.50;;;;;;4463377;32;19978;-77
2022/12/25 08:58:06;;;;;;;;;;;18.10;64.20;;;;;;4463088;32;19966;-77
2022/12/25 09:00:32;;;;;;;;;;;18.20;63.90;;;;;;4463160;32;20384;-78
2022/12/25 09:02:57;;;;;;;;;;;18.40;63.60;;;;;;4449075;32;19978;-78
2022/12/25 09:05:23;;;;;;;;;;;18.60;63.30;;;;;;4463490;32;20010;-78
2022/12/25 09:07:58;;;;;;;;;;;18.70;62.90;;;;;;4463319;32;19978;-78
2022/12/25 09:10:23;;;;;;;;;;;18.90;62.50;;;;;;4463381;32;19986;-77
2022/12/25 09:12:49;;;;;;;;;;;19.10;62.20;;;;;;4463257;32;20069;-78
2022/12/25 09:15:15;;;;;;;;;;;19.20;61.90;;;;;;4462928;32;19962;-78
2022/12/25 09:17:41;;;;;;;;;;;19.30;61.70;;;;;;4463183;32;20169;-78
2022/12/25 09:20:06;;;;;;;;;;;19.40;61.40;;;;;;4448810;32;19970;-78
2022/12/25 09:22:32;;;;;;;;;;;19.50;61.30;;;;;;4463179;32;19978;-78
2022/12/25 09:24:58;;;;;;;;;;;19.50;61.20;;;;;;4462933;32;19981;-78
2022/12/25 09:27:24;;;;;;;;;;;19.50;61.10;;;;;;4463098;32;20399;-79
2022/12/25 09:29:50;;;;;;;;;;;19.50;61.10;;;;;;4462705;32;20407;-79
2022/12/25 09:32:16;;;;;;;;;;;19.50;61.10;;;;;;4462886;32;19959;-79
2022/12/25 09:34:42;;;;;;;;;;;19.50;61.10;;;;;;4461957;32;19978;-80
2022/12/25 09:37:08;;;;;;;;;;;19.50;61.10;;;;;;4459054;32;19983;-80
2022/12/25 09:39:34;;;;;;;;;;;19.60;61.10;;;;;;4461073;32;20015;-80
2022/12/25 09:42:27;;;;;;;;;;;19.60;61.10;;;;;;4460104;32;19974;-80
2022/12/25 09:44:58;;;;;;;;;;;19.60;61.20;;;;;;4459155;32;20029;-80
2022/12/25 09:47:25;;;;;;;;;;;19.60;61.10;;;;;;4458222;32;20030;-77
2022/12/25 09:49:51;;;;;;;;;;;19.60;61.10;;;;;;4441340;32;19994;-80
2022/12/25 09:52:24;;;;;;;;;;;19.60;61.20;;;;;;4459528;32;19966;-80
2022/12/25 09:54:56;;;;;;;;;;;19.70;61.60;;;;;;4461988;32;20014;-79
2022/12/25 09:57:23;;;;;;;;;;;19.70;61.40;;;;;;4448160;32;19981;-79
2022/12/25 09:59:54;;;;;;;;;;;19.70;61.50;;;;;;4458104;32;20379;-78
2022/12/25 10:02:31;;;;;;;;;;;19.70;61.50;;;;;;4451667;32;20072;-78
2022/12/25 10:05:09;;;;;;;;;;;19.70;61.60;;;;;;4451497;32;19979;-78
2022/12/25 10:07:54;;;;;;;;;;;19.70;62.00;;;;;;4446187;32;20402;-78
2022/12/25 10:10:23;;;;;;;;;;;19.70;61.70;;;;;;4457529;32;20483;-78
2022/12/25 10:13:02;;;;;;;;;;;19.70;61.70;;;;;;4453061;32;20494;-78
2022/12/25 10:15:27;;;;;;;;;;;19.70;61.80;;;;;;4460444;32;19997;-79
2022/12/25 10:18:06;;;;;;;;;;;19.70;61.90;;;;;;4459256;32;20076;-78
2022/12/25 10:20:33;;;;;;;;;;;19.70;62.00;;;;;;4459509;32;20352;-78
2022/12/25 10:23:02;;;;;;;;;;;19.70;62.00;;;;;;4461038;32;19986;-76
2022/12/25 10:25:29;;;;;;;;;;;19.70;62.10;;;;;;4460854;32;20100;-79
2022/12/25 10:27:57;;;;;;;;;;;19.70;62.10;;;;;;4461090;32;19992;-79
2022/12/25 10:30:24;;;;;;;;;;;19.70;62.10;;;;;;4458768;32;19986;-79
2022/12/25 10:32:50;;;;;;;;;;;19.70;62.20;;;;;;4460627;32;19988;-78
2022/12/25 10:35:18;;;;;;;;;;;19.70;62.20;;;;;;4460130;32;19986;-79
2022/12/25 10:37:45;;;;;;;;;;;19.70;62.30;;;;;;4461275;32;20558;-78
2022/12/25 10:40:21;;;;;;;;;;;19.70;62.30;;;;;;4460589;32;19986;-78
2022/12/25 10:42:51;;;;;;;;;;;19.70;62.30;;;;;;4459394;32;19985;-79
2022/12/25 10:45:17;;;;;;;;;;;19.60;62.20;;;;;;4440961;32;20049;-79
2022/12/25 10:47:43;;;;;;;;;;;19.70;62.30;;;;;;4460583;32;19981;-79
2022/12/25 10:50:17;;;;;;;;;;;19.70;62.30;;;;;;4459695;32;19978;-77
2022/12/25 10:52:59;;;;;;;;;;;19.70;62.30;;;;;;4459240;32;19986;-78
2022/12/25 10:55:25;;;;;;;;;;;19.70;62.30;;;;;;4460633;32;20072;-77
2022/12/25 10:57:51;;;;;;;;;;;19.70;62.30;;;;;;4459194;32;20359;-77
2022/12/25 11:00:21;;;;;;;;;;;19.70;62.30;;;;;;4459357;32;20021;-77
2022/12/25 11:02:47;;;;;;;;;;;19.70;62.20;;;;;;4445227;32;20004;-77
2022/12/25 11:05:20;;;;;;;;;;;19.70;62.30;;;;;;4459591;32;20420;-78
2022/12/25 11:07:53;;;;;;;;;;;19.70;62.30;;;;;;4459289;32;19993;-77
2022/12/25 11:10:18;;;;;;;;;;;19.70;62.30;;;;;;4445378;32;20398;-77
2022/12/25 11:12:44;;;;;;;;;;;19.70;62.30;;;;;;4459023;32;20403;-78
2022/12/25 11:15:29;;;;;;;;;;;19.70;62.40;;;;;;4458130;32;19982;-78
2022/12/25 11:17:55;;;;;;;;;;;19.70;62.40;;;;;;4459973;32;19994;-76
2022/12/25 11:20:21;;;;;;;;;;;19.70;62.40;;;;;;4458492;32;20028;-78
2022/12/25 11:22:48;;;;;;;;;;;19.70;62.40;;;;;;4459826;32;20303;-78
2022/12/25 11:25:19;;;;;;;;;;;19.70;62.50;;;;;;4457366;32;20100;-80
2022/12/25 11:27:54;;;;;;;;;;;19.70;62.50;;;;;;4459479;32;19989;-79
2022/12/25 11:30:20;;;;;;;;;;;19.70;62.60;;;;;;4458397;32;19990;-79
2022/12/25 11:32:51;;;;;;;;;;;19.70;62.60;;;;;;4459584;32;20379;-79
2022/12/25 11:35:17;;;;;;;;;;;19.70;62.60;;;;;;4459805;32;19996;-79
2022/12/25 11:37:45;;;;;;;;;;;19.70;62.70;;;;;;4460172;32;20104;-79
2022/12/25 11:40:14;;;;;;;;;;;19.70;62.60;;;;;;4457962;32;19988;-79
2022/12/25 11:42:42;;;;;;;;;;;19.70;62.70;;;;;;4458133;32;19994;-79
2022/12/25 11:45:12;;;;;;;;;;;19.70;62.70;;;;;;4457387;32;20021;-79
2022/12/25 11:47:43;;;;;;;;;;;19.70;62.70;;;;;;4458897;32;19989;-79
2022/12/25 11:50:12;;;;;;;;;;;19.70;62.70;;;;;;4459961;32;19993;-80
2022/12/25 11:52:40;;;;;;;;;;;19.70;62.70;;;;;;4459239;32;20438;-79
2022/12/25 11:55:15;;;;;;;;;;;19.70;62.60;;;;;;4459240;32;20334;-79
2022/12/25 11:57:44;;;;;;;;;;;19.70;62.70;;;;;;4459693;32;19978;-76
2022/12/25 12:00:13;;;;;;;;;;;19.70;62.70;;;;;;4459332;32;20005;-78
2022/12/25 12:02:45;;;;;;;;;;;19.70;62.70;;;;;;4460344;32;19978;-78
2022/12/25 12:05:11;;;;;;;;;;;19.70;62.90;;;;;;4449656;32;19990;-78
2022/12/25 12:08:13;;;;;;;;;;;19.60;62.90;;;;;;4457964;32;20083;-77
2022/12/25 12:10:56;;;;;;;;;;;19.60;63.10;;;;;;4442628;32;20049;-78
2022/12/25 12:13:42;;;;;;;;;;;19.50;63.30;;;;;;4450430;32;20033;-79
2022/12/25 12:16:08;;;;;;;;;;;19.50;63.60;;;;;;4450149;32;20414;-78
2022/12/25 12:18:47;;;;;;;;;;;19.40;64.20;;;;;;4458195;32;19986;-79
2022/12/25 12:21:28;;;;;;;;;;;19.40;64.60;;;;;;4455661;32;20025;-78
2022/12/25 12:23:54;;;;;;;;;;;19.30;64.40;;;;;;4463365;32;20394;-78
2022/12/25 12:26:27;;;;;;;;;;;19.30;64.30;;;;;;4463785;32;19974;-78
2022/12/25 12:28:57;;;;;;;;;;;19.30;64.40;;;;;;4461714;32;20058;-79
2022/12/25 12:31:24;;;;;;;;;;;19.40;64.40;;;;;;4460415;32;19985;-78
2022/12/25 12:33:52;;;;;;;;;;;19.40;64.40;;;;;;4446675;32;19998;-79
2022/12/25 12:36:21;;;;;;;;;;;19.50;64.20;;;;;;4462880;32;20117;-79
2022/12/25 12:38:47;;;;;;;;;;;19.60;64.30;;;;;;4461285;32;20062;-79
2022/12/25 12:41:15;;;;;;;;;;;19.60;64.10;;;;;;4463459;32;20092;-79
2022/12/25 12:43:43;;;;;;;;;;;19.70;64.10;;;;;;4461993;32;19978;-79
2022/12/25 12:46:20;;;;;;;;;;;19.70;64.10;;;;;;4462885;32;20088;-80
2022/12/25 12:48:47;;;;;;;;;;;19.70;64.00;;;;;;4461820;32;19990;-79
2022/12/25 12:51:33;;;;;;;;;;;19.80;64.10;;;;;;4452772;32;20115;-79
2022/12/25 12:54:19;;;;;;;;;;;19.80;64.10;;;;;;4463222;32;19981;-80
2022/12/25 12:57:04;;;;;;;;;;;19.80;64.20;;;;;;4463504;32;20395;-80
2022/12/25 12:59:45;;;;;;;;;;;19.80;64.20;;;;;;4463188;32;19981;-79
2022/12/25 13:02:20;;;;;;;;;;;19.80;64.30;;;;;;4463489;32;20324;-79
2022/12/25 13:04:52;;;;;;;;;;;19.80;64.50;;;;;;4463067;32;20065;-77
2022/12/25 13:07:18;;;;;;;;;;;19.80;64.50;;;;;;4463501;32;19985;-77
2022/12/25 13:09:53;;;;;;;;;;;19.80;64.50;;;;;;4462897;32;20084;-78
2022/12/25 13:12:19;;;;;;;;;;;19.80;64.60;;;;;;4462673;32;20118;-77
2022/12/25 13:14:48;;;;;;;;;;;19.80;64.60;;;;;;4459585;32;19986;-78
2022/12/25 13:17:17;;;;;;;;;;;19.80;64.70;;;;;;4460394;32;20025;-77
2022/12/25 13:19:43;;;;;;;;;;;19.80;64.70;;;;;;4461357;32;19990;-79
2022/12/25 13:22:20;;;;;;;;;;;19.80;64.70;;;;;;4458959;32;19970;-79
2022/12/25 13:24:53;;;;;;;;;;;19.80;64.70;;;;;;4462096;32;20436;-79
2022/12/25 13:27:24;;;;;;;;;;;19.80;64.70;;;;;;4460258;32;19978;-78
2022/12/25 13:29:49;;;;;;;;;;;19.80;64.70;;;;;;4461443;32;19992;-79
2022/12/25 13:32:29;;;;;;;;;;;19.80;64.70;;;;;;4458545;32;19979;-79
2022/12/25 13:34:55;;;;;;;;;;;19.70;64.70;;;;;;4452981;32;20095;-83
2022/12/25 13:37:22;;;;;;;;;;;19.70;65.10;;;;;;4454476;32;19978;-77
2022/12/25 13:39:52;;;;;;;;;;;19.70;64.90;;;;;;4457106;32;20052;-76
2022/12/25 13:42:19;;;;;;;;;;;19.70;64.90;;;;;;4458559;32;19988;-78
2022/12/25 13:44:51;;;;;;;;;;;19.70;64.90;;;;;;4460195;32;20319;-75
2022/12/25 13:47:33;;;;;;;;;;;19.70;64.80;;;;;;4445534;32;20046;-75
2022/12/25 13:50:18;;;;;;;;;;;19.80;64.80;;;;;;4461142;32;19990;-75
2022/12/25 13:52:44;;;;;;;;;;;19.80;64.80;;;;;;4445889;32;20061;-76
2022/12/25 13:55:14;;;;;;;;;;;19.80;64.80;;;;;;4460120;32;19966;-75
2022/12/25 13:57:52;;;;;;;;;;;19.80;64.70;;;;;;4459745;32;20763;-75
2022/12/25 14:00:42;;;;;;;;;;;19.80;64.70;;;;;;4460012;32;19992;-75
2022/12/25 14:03:17;;;;;;;;;;;19.80;64.70;;;;;;4460316;32;20067;-76
2022/12/25 14:05:44;;;;;;;;;;;19.80;64.70;;;;;;4458538;32;20167;-76
2022/12/25 14:08:21;;;;;;;;;;;19.90;64.80;;;;;;4458521;32;20324;-75
2022/12/25 14:10:48;;;;;;;;;;;19.80;64.70;;;;;;4459693;32;20427;-76
2022/12/25 14:13:14;;;;;;;;;;;19.80;64.70;;;;;;4459733;32;20026;-76
2022/12/25 14:15:40;;;;;;;;;;;19.80;64.70;;;;;;4460406;32;20238;-76
2022/12/25 14:18:12;;;;;;;;;;;19.80;64.80;;;;;;4460165;32;20091;-76
2022/12/25 14:20:41;;;;;;;;;;;19.80;64.80;;;;;;4458746;32;20059;-75
2022/12/25 14:23:13;;;;;;;;;;;19.80;64.80;;;;;;4457574;32;20104;-76
2022/12/25 14:25:43;;;;;;;;;;;19.80;65.00;;;;;;4459893;32;20046;-76
2022/12/25 14:28:16;;;;;;;;;;;19.80;64.90;;;;;;4459763;32;19993;-76
2022/12/25 14:30:42;;;;;;;;;;;19.80;64.90;;;;;;4459903;32;20022;-75
2022/12/25 14:33:13;;;;;;;;;;;19.80;64.90;;;;;;4460827;32;20395;-76
2022/12/25 14:35:45;;;;;;;;;;;19.80;64.90;;;;;;4437007;32;20601;-76
2022/12/25 14:38:19;;;;;;;;;;;19.80;64.90;;;;;;4452742;32;20064;-76
2022/12/25 14:40:45;;;;;;;;;;;19.80;64.90;;;;;;4459398;32;19982;-77
2022/12/25 14:43:22;;;;;;;;;;;19.80;64.80;;;;;;4460465;32;19986;-76
2022/12/25 14:45:59;;;;;;;;;;;19.80;65.00;;;;;;4453006;32;20415;-76
2022/12/25 14:48:26;;;;;;;;;;;19.80;65.00;;;;;;4456298;32;20181;-75
2022/12/25 14:51:02;;;;;;;;;;;19.70;65.10;;;;;;4451039;32;20030;-72
2022/12/25 14:53:33;;;;;;;;;;;19.60;65.20;;;;;;4461910;32;19993;-67
2022/12/25 14:55:59;;;;;;;;;;;19.60;65.50;;;;;;4461421;32;19989;-75
2022/12/25 14:58:26;;;;;;;;;;;19.50;65.60;;;;;;4461704;32;19982;-75
2022/12/25 15:00:55;;;;;;;;;;;19.40;65.70;;;;;;4461227;32;20005;-75
2022/12/25 15:03:31;;;;;;;;;;;19.40;65.90;;;;;;4461434;32;19989;-75
2022/12/25 15:06:00;;;;;;;;;;;19.30;65.90;;;;;;4461923;32;20311;-75
2022/12/25 15:08:27;;;;;;;;;;;19.30;66.00;;;;;;4461364;32;19978;-75
2022/12/25 15:10:54;;;;;;;;;;;19.30;66.10;;;;;;4461477;32;20076;-75
2022/12/25 15:13:22;;;;;;;;;;;19.20;66.00;;;;;;4461329;32;19986;-75
2022/12/25 15:15:56;;;;;;;;;;;19.20;66.10;;;;;;4461434;32;19977;-75
2022/12/25 15:18:23;;;;;;;;;;;19.20;66.10;;;;;;4461367;32;20799;-75
2022/12/25 15:20:53;;;;;;;;;;;19.10;66.20;;;;;;4461325;32;20123;-75
2022/12/25 15:23:19;;;;;;;;;;;19.10;66.30;;;;;;4461221;32;19970;-75
2022/12/25 15:25:46;;;;;;;;;;;19.00;66.30;;;;;;4461309;32;20026;-75
2022/12/25 15:28:12;;;;;;;;;;;19.00;66.40;;;;;;4461307;32;19978;-75
2022/12/25 15:30:38;;;;;;;;;;;19.00;66.40;;;;;;4461026;32;20402;-75
2022/12/25 15:33:10;;;;;;;;;;;18.90;66.40;;;;;;4461277;32;19985;-75
2022/12/25 15:35:37;;;;;;;;;;;18.90;66.50;;;;;;4446892;32;19978;-75
2022/12/25 15:38:03;;;;;;;;;;;18.90;66.60;;;;;;4461174;32;19988;-75
2022/12/25 15:40:29;;;;;;;;;;;18.80;66.60;;;;;;4460928;32;19986;-75
2022/12/25 15:42:55;;;;;;;;;;;18.80;66.70;;;;;;4461118;32;19989;-74
2022/12/25 15:45:26;;;;;;;;;;;18.80;67.50;;;;;;4460975;32;20100;-75
2022/12/25 15:47:52;;;;;;;;;;;18.80;66.70;;;;;;4461169;32;20033;-75
2022/12/25 15:50:19;;;;;;;;;;;18.80;66.70;;;;;;4461089;32;20047;-75
2022/12/25 15:52:45;;;;;;;;;;;18.80;66.80;;;;;;4460294;32;20021;-75
2022/12/25 15:55:11;;;;;;;;;;;18.70;66.80;;;;;;4460974;32;20032;-75
2022/12/25 15:57:39;;;;;;;;;;;18.70;66.90;;;;;;4460864;32;19978;-75
2022/12/25 16:00:07;;;;;;;;;;;18.70;66.90;;;;;;4461004;32;20506;-75
2022/12/25 16:02:34;;;;;;;;;;;18.70;66.90;;;;;;4460790;32;19980;-75
2022/12/25 16:05:00;;;;;;;;;;;18.70;66.90;;;;;;4446753;32;19978;-75
2022/12/25 16:07:28;;;;;;;;;;;18.60;67.00;;;;;;4460927;32;19977;-75